createdAt,value
2018-09-10T00:01:01.682Z,99303.98
2018-09-10T00:03:30.204Z,99310.84
2018-09-10T00:05:58.857Z,99305.46
2018-09-10T00:08:27.258Z,99304.34
2018-09-10T00:10:55.592Z,99304.62
2018-09-10T00:13:23.987Z,99308.08
2018-09-10T00:15:52.345Z,99305.33
2018-09-10T00:18:20.730Z,99309.48
2018-09-10T00:20:49.065Z,99310.27
2018-09-10T00:23:17.464Z,99306.72
2018-09-10T00:25:45.919Z,99308.35
2018-09-10T00:28:14.376Z,99308.70
2018-09-10T00:30:42.656Z,99302.89
2018-09-10T00:33:11.015Z,99302.75
2018-09-10T00:35:39.426Z,99301.68
2018-09-10T00:38:07.830Z,99299.10
2018-09-10T00:40:36.257Z,99290.77
2018-09-10T00:43:04.809Z,99297.90
2018-09-10T00:45:33.214Z,99302.59
2018-09-10T00:48:01.626Z,99302.81
2018-09-10T00:50:29.986Z,99310.21
2018-09-10T00:52:58.338Z,99299.66
2018-09-10T00:55:26.762Z,99299.79
2018-09-10T00:57:55.117Z,99302.84
2018-09-10T01:00:30.027Z,99302.58
2018-09-10T01:02:58.444Z,99306.08
2018-09-10T01:05:26.801Z,99302.52
2018-09-10T01:07:55.460Z,99295.72
2018-09-10T01:10:23.840Z,99293.39
2018-09-10T01:12:52.295Z,99296.20
2018-09-10T01:15:20.609Z,99292.98
2018-09-10T01:17:48.961Z,99294.71
2018-09-10T01:20:17.662Z,99294.48
2018-09-10T01:22:45.974Z,99298.36
2018-09-10T01:25:14.299Z,99298.52
2018-09-10T01:27:42.704Z,99293.66
2018-09-10T01:30:11.187Z,99292.68
2018-09-10T01:32:39.527Z,99301.09
2018-09-10T01:35:08.382Z,99300.88
2018-09-10T01:37:37.044Z,99300.56
2018-09-10T01:40:05.524Z,99296.78
2018-09-10T01:42:33.958Z,99303.51
2018-09-10T01:45:02.683Z,99309.20
2018-09-10T01:47:31.193Z,99318.09
2018-09-10T01:49:59.585Z,99321.77
2018-09-10T01:52:28.753Z,99314.70
2018-09-10T01:54:57.131Z,99311.16
2018-09-10T01:57:25.488Z,99307.86
2018-09-10T01:59:53.852Z,99314.05
2018-09-10T02:02:22.219Z,99311.61
2018-09-10T02:04:50.552Z,99312.39
2018-09-10T02:07:18.925Z,99309.85
2018-09-10T02:09:47.269Z,99308.19
2018-09-10T02:12:21.161Z,99307.36
2018-09-10T02:14:49.544Z,99310.39
2018-09-10T02:17:17.967Z,99308.93
2018-09-10T02:19:46.432Z,99308.30
2018-09-10T02:22:14.811Z,99313.01
2018-09-10T02:24:43.167Z,99303.41
2018-09-10T02:27:11.484Z,99302.56
2018-09-10T02:29:39.930Z,99304.70
2018-09-10T02:32:08.383Z,99298.23
2018-09-10T02:34:36.750Z,99298.71
2018-09-10T02:37:05.448Z,99298.38
2018-09-10T02:39:33.939Z,99298.00
2018-09-10T02:42:02.478Z,99296.58
2018-09-10T02:44:30.843Z,99296.36
2018-09-10T02:46:59.189Z,99292.66
2018-09-10T02:49:27.566Z,99294.84
2018-09-10T02:51:55.883Z,99293.98
2018-09-10T02:54:24.212Z,99298.45
2018-09-10T02:56:52.546Z,99298.77
2018-09-10T02:59:20.859Z,99295.84
2018-09-10T03:01:49.230Z,99291.09
2018-09-10T03:04:17.540Z,99288.58
2018-09-10T03:06:45.878Z,99293.94
2018-09-10T03:09:14.247Z,99288.75
2018-09-10T03:11:42.580Z,99287.80
2018-09-10T03:14:10.913Z,99300.61
2018-09-10T03:16:42.190Z,99300.97
2018-09-10T03:19:10.483Z,99293.38
2018-09-10T03:21:38.915Z,99285.52
2018-09-10T03:24:07.312Z,99285.06
2018-09-10T03:26:35.976Z,99283.19
2018-09-10T03:29:04.291Z,99279.75
2018-09-10T03:31:32.708Z,99279.67
2018-09-10T03:34:01.144Z,99282.43
2018-09-10T03:36:29.470Z,99287.72
2018-09-10T03:38:57.808Z,99283.58
2018-09-10T03:41:26.133Z,99278.06
2018-09-10T03:43:54.471Z,99284.13
2018-09-10T03:46:23.878Z,99273.80
2018-09-10T03:49:04.714Z,99278.16
2018-09-10T03:51:33.193Z,99278.88
2018-09-10T03:54:01.895Z,99275.23
2018-09-10T03:56:30.346Z,99276.78
2018-09-10T03:58:58.715Z,99273.86
2018-09-10T04:01:27.096Z,99270.17
2018-09-10T04:03:55.410Z,99264.38
2018-09-10T04:06:23.809Z,99268.63
2018-09-10T04:08:52.308Z,99267.66
2018-09-10T04:11:20.654Z,99267.39
2018-09-10T04:13:48.998Z,99273.56
2018-09-10T04:16:17.336Z,99263.89
2018-09-10T04:18:46.197Z,99262.30
2018-09-10T04:21:14.733Z,99259.96
2018-09-10T04:23:43.130Z,99262.70
2018-09-10T04:26:11.547Z,99257.93
2018-09-10T04:28:39.874Z,99259.02
2018-09-10T04:31:08.185Z,99259.27
2018-09-10T04:33:36.661Z,99256.08
2018-09-10T04:36:05.176Z,99255.34
2018-09-10T04:38:33.606Z,99256.19
2018-09-10T04:41:01.986Z,99263.22
2018-09-10T04:43:31.033Z,99265.97
2018-09-10T04:45:59.412Z,99266.06
2018-09-10T04:48:27.904Z,99259.73
2018-09-10T04:50:56.425Z,99268.52
2018-09-10T04:53:25.043Z,99267.42
2018-09-10T04:55:53.378Z,99270.83
2018-09-10T04:58:21.811Z,99274.42
2018-09-10T05:00:50.276Z,99273.59
2018-09-10T05:03:18.659Z,99279.36
2018-09-10T05:05:47.006Z,99279.11
2018-09-10T05:08:15.326Z,99288.03
2018-09-10T05:10:43.661Z,99287.31
2018-09-10T05:13:12.088Z,99293.50
2018-09-10T05:15:40.683Z,99300.17
2018-09-10T05:18:09.182Z,99294.45
2018-09-10T05:20:37.552Z,99292.55
2018-09-10T05:23:06.427Z,99302.00
2018-09-10T05:25:34.993Z,99307.67
2018-09-10T05:28:03.341Z,99312.27
2018-09-10T05:30:31.696Z,99314.28
2018-09-10T05:33:00.123Z,99313.08
2018-09-10T05:35:28.511Z,99311.12
2018-09-10T05:37:56.938Z,99310.77
2018-09-10T05:47:22.727Z,99316.58
2018-09-10T05:49:51.137Z,99322.56
2018-09-10T05:52:19.683Z,99308.41
2018-09-10T05:54:48.989Z,99306.16
2018-09-10T05:57:17.327Z,99304.47
2018-09-10T05:59:45.706Z,99307.85
2018-09-10T06:02:14.078Z,99303.48
2018-09-10T06:04:42.622Z,99302.70
2018-09-10T06:07:11.091Z,99292.79
2018-09-10T06:09:39.521Z,99302.63
2018-09-10T06:12:07.949Z,99295.84
2018-09-10T06:14:36.274Z,99295.77
2018-09-10T06:17:04.635Z,99296.82
2018-09-10T06:19:32.993Z,99295.98
2018-09-10T06:22:01.319Z,99296.64
2018-09-10T06:24:29.634Z,99301.41
2018-09-10T06:26:58.037Z,99297.42
2018-09-10T06:29:26.428Z,99295.30
2018-09-10T06:31:54.796Z,99289.73
2018-09-10T06:34:23.258Z,99289.50
2018-09-10T06:36:51.584Z,99285.71
2018-09-10T06:39:19.954Z,99283.03
2018-09-10T06:41:48.310Z,99282.15
2018-09-10T06:44:16.756Z,99284.72
2018-09-10T06:46:45.137Z,99282.26
2018-09-10T06:49:13.743Z,99277.22
2018-09-10T06:51:42.049Z,99276.47
2018-09-10T06:54:10.609Z,99274.31
2018-09-10T06:56:39.528Z,99279.01
2018-09-10T06:59:08.146Z,99283.66
2018-09-10T07:01:36.688Z,99290.00
2018-09-10T07:04:05.162Z,99290.08
2018-09-10T07:06:33.727Z,99279.05
2018-09-10T07:09:02.155Z,99284.77
2018-09-10T07:11:30.658Z,99290.23
2018-09-10T07:13:59.052Z,99295.05
2018-09-10T07:16:27.496Z,99299.30
2018-09-10T07:18:55.849Z,99291.98
2018-09-10T07:21:24.226Z,99288.70
2018-09-10T07:23:52.618Z,99293.59
2018-09-10T07:26:21.009Z,99291.63
2018-09-10T07:28:49.482Z,99295.45
2018-09-10T07:31:17.772Z,99295.13
2018-09-10T07:33:46.246Z,99299.51
2018-09-10T07:36:14.579Z,99302.59
2018-09-10T07:38:43.170Z,99298.94
2018-09-10T07:41:11.494Z,99300.66
2018-09-10T07:43:39.936Z,99295.44
2018-09-10T07:46:08.267Z,99300.71
2018-09-10T07:48:36.646Z,99296.67
2018-09-10T07:51:04.971Z,99295.85
2018-09-10T07:53:33.316Z,99294.11
2018-09-10T07:56:01.934Z,99302.04
2018-09-10T07:58:30.478Z,99298.31
2018-09-10T08:00:58.844Z,99297.03
2018-09-10T08:03:27.283Z,99290.77
2018-09-10T08:05:55.613Z,99287.40
2018-09-10T08:08:24.257Z,99286.90
2018-09-10T08:10:52.736Z,99284.16
2018-09-10T08:13:22.229Z,99284.64
2018-09-10T08:15:50.761Z,99282.39
2018-09-10T08:19:43.622Z,99278.39
2018-09-10T08:22:12.176Z,99281.22
2018-09-10T08:24:40.625Z,99282.13
2018-09-10T08:27:09.208Z,99286.66
2018-09-10T08:29:37.546Z,99288.67
2018-09-10T08:32:06.023Z,99288.42
2018-09-10T08:34:34.389Z,99284.58
2018-09-10T08:37:03.106Z,99275.00
2018-09-10T08:39:31.491Z,99270.80
2018-09-10T08:41:59.874Z,99263.70
2018-09-10T08:44:28.615Z,99272.17
2018-09-10T08:46:57.111Z,99279.34
2018-09-10T08:49:25.786Z,99281.55
2018-09-10T08:51:54.145Z,99290.09
2018-09-10T08:54:22.603Z,99287.52
2018-09-10T08:56:50.991Z,99284.99
2018-09-10T08:59:19.345Z,99279.45
2018-09-10T09:01:47.701Z,99276.64
2018-09-10T09:04:16.006Z,99279.17
2018-09-10T09:06:44.678Z,99278.91
2018-09-10T09:09:13.072Z,99279.14
2018-09-10T09:11:41.488Z,99287.14
2018-09-10T09:14:09.906Z,99290.98
2018-09-10T09:16:38.246Z,99289.95
2018-09-10T09:19:06.597Z,99286.44
2018-09-10T09:21:34.915Z,99285.50
2018-09-10T09:24:03.258Z,99285.09
2018-09-10T09:26:31.612Z,99287.46
2018-09-10T09:28:59.930Z,99289.33
2018-09-10T09:31:28.269Z,99296.03
2018-09-10T09:33:56.586Z,99293.88
2018-09-10T09:36:30.271Z,99289.04
2018-09-10T09:39:03.959Z,99281.64
2018-09-10T09:41:37.458Z,99284.06
2018-09-10T09:44:11.079Z,99277.27
2018-09-10T09:46:39.503Z,99277.65
2018-09-10T09:49:07.938Z,99277.32
2018-09-10T09:51:36.277Z,99280.19
2018-09-10T09:54:04.983Z,99282.73
2018-09-10T09:56:33.412Z,99279.92
2018-09-10T09:59:01.755Z,99279.64
2018-09-10T10:01:35.343Z,99281.25
2018-09-10T10:04:08.598Z,99277.40
2018-09-10T10:06:37.238Z,99272.91
2018-09-10T10:09:08.842Z,99268.77
2018-09-10T10:11:37.565Z,99263.09
2018-09-10T10:14:06.258Z,99262.34
2018-09-10T10:16:34.706Z,99251.52
2018-09-10T10:19:02.981Z,99247.56
2018-09-10T10:21:31.403Z,99245.14
2018-09-10T10:23:59.907Z,99247.87
2018-09-10T10:26:28.268Z,99259.00
2018-09-10T10:28:56.767Z,99259.47
2018-09-10T10:31:25.235Z,99240.77
2018-09-10T10:33:53.570Z,99237.06
2018-09-10T10:36:21.922Z,99235.75
2018-09-10T10:38:50.263Z,99233.78
2018-09-10T10:41:18.628Z,99235.14
2018-09-10T10:43:46.936Z,99245.38
2018-09-10T10:46:15.253Z,99235.30
2018-09-10T10:48:43.728Z,99230.59
2018-09-10T10:51:12.151Z,99234.53
2018-09-10T10:53:40.477Z,99229.95
2018-09-10T10:56:08.835Z,99226.39
2018-09-10T10:58:37.227Z,99228.77
2018-09-10T11:01:05.544Z,99227.97
2018-09-10T11:03:33.855Z,99233.68
2018-09-10T11:06:02.210Z,99227.09
2018-09-10T11:08:30.621Z,99236.96
2018-09-10T11:10:58.982Z,99235.98
2018-09-10T11:13:27.342Z,99224.70
2018-09-10T11:15:55.646Z,99220.59
2018-09-10T11:18:24.085Z,99228.87
2018-09-10T11:20:52.409Z,99231.59
2018-09-10T11:23:20.757Z,99235.15
2018-09-10T11:25:49.079Z,99235.47
2018-09-10T11:28:17.403Z,99225.52
2018-09-10T11:30:45.709Z,99224.77
2018-09-10T11:33:14.239Z,99222.44
2018-09-10T11:35:42.671Z,99228.30
2018-09-10T11:38:10.996Z,99217.12
2018-09-10T11:40:39.342Z,99214.44
2018-09-10T11:43:07.715Z,99220.31
2018-09-10T11:45:42.692Z,99217.47
2018-09-10T11:48:11.035Z,99223.39
2018-09-10T11:50:39.346Z,99213.00
2018-09-10T11:53:07.715Z,99214.13
2018-09-10T11:55:36.106Z,99210.57
2018-09-10T11:58:04.463Z,99213.84
2018-09-10T12:00:32.869Z,99209.73
2018-09-10T12:03:01.250Z,99206.17
2018-09-10T12:05:29.634Z,99222.11
2018-09-10T12:07:58.158Z,99215.63
2018-09-10T12:10:26.594Z,99216.27
2018-09-10T12:12:55.036Z,99218.34
2018-09-10T12:15:23.484Z,99221.07
2018-09-10T12:17:51.857Z,99218.95
2018-09-10T12:20:20.179Z,99208.36
2018-09-10T12:22:48.522Z,99223.19
2018-09-10T12:25:16.879Z,99215.19
2018-09-10T12:27:45.440Z,99203.58
2018-09-10T12:30:14.079Z,99194.97
2018-09-10T12:32:42.530Z,99194.02
2018-09-10T12:35:11.044Z,99200.24
2018-09-10T12:37:39.428Z,99197.58
2018-09-10T12:40:07.806Z,99192.37
2018-09-10T12:42:36.161Z,99196.83
2018-09-10T12:45:04.559Z,99195.33
2018-09-10T12:47:32.914Z,99193.80
2018-09-10T12:50:01.298Z,99196.91
2018-09-10T12:52:29.781Z,99202.16
2018-09-10T12:54:58.140Z,99186.73
2018-09-10T12:57:26.475Z,99182.56
2018-09-10T12:59:54.835Z,99181.09
2018-09-10T13:02:23.166Z,99179.73
2018-09-10T13:04:51.543Z,99193.17
2018-09-10T13:07:19.830Z,99187.53
2018-09-10T13:09:48.220Z,99196.12
2018-09-10T13:12:16.545Z,99200.73
2018-09-10T13:14:46.436Z,99204.82
2018-09-10T13:17:15.032Z,99203.97
2018-09-10T13:19:43.658Z,99205.64
2018-09-10T13:22:12.051Z,99205.23
2018-09-10T13:24:54.928Z,99204.40
2018-09-10T13:27:23.343Z,99213.14
2018-09-10T13:29:52.117Z,99220.58
2018-09-10T13:32:20.936Z,99217.66
2018-09-10T13:34:49.666Z,99212.88
2018-09-10T13:37:18.344Z,99212.26
2018-09-10T13:39:46.899Z,99211.00
2018-09-10T13:42:15.539Z,99212.12
2018-09-10T13:44:44.037Z,99214.00
2018-09-10T13:47:12.611Z,99223.43
2018-09-10T13:49:41.309Z,99235.80
2018-09-10T13:52:09.898Z,99230.44
2018-09-10T13:54:38.576Z,99229.91
2018-09-10T13:57:06.939Z,99231.15
2018-09-10T13:59:35.312Z,99252.16
2018-09-10T14:02:03.669Z,99249.97
2018-09-10T14:04:31.991Z,99251.57
2018-09-10T14:07:00.376Z,99247.19
2018-09-10T14:09:28.727Z,99244.97
2018-09-10T14:11:57.063Z,99240.38
2018-09-10T14:14:25.371Z,99234.09
2018-09-10T14:16:53.693Z,99237.93
2018-09-10T14:19:22.203Z,99235.55
2018-09-10T14:21:50.559Z,99233.99
2018-09-10T14:24:18.929Z,99237.70
2018-09-10T14:26:47.382Z,99237.52
2018-09-10T14:29:15.819Z,99226.83
2018-09-10T14:31:44.131Z,99230.70
2018-09-10T14:34:12.450Z,99231.44
2018-09-10T14:36:40.763Z,99223.03
2018-09-10T14:39:09.647Z,99220.00
2018-09-10T14:41:37.998Z,99216.25
2018-09-10T14:44:06.397Z,99210.08
2018-09-10T14:46:34.779Z,99197.98
2018-09-10T14:49:03.149Z,99205.75
2018-09-10T14:51:31.546Z,99211.44
2018-09-10T14:53:59.905Z,99211.30
2018-09-10T14:56:28.269Z,99213.73
2018-09-10T14:58:56.562Z,99206.36
2018-09-10T15:01:24.939Z,99202.70
2018-09-10T15:03:53.351Z,99200.73
2018-09-10T15:06:21.694Z,99213.16
2018-09-10T15:08:50.039Z,99226.64
2018-09-10T15:11:18.411Z,99231.14
2018-09-10T15:13:46.818Z,99237.94
2018-09-10T15:16:15.235Z,99244.67
2018-09-10T15:18:43.640Z,99253.14
2018-09-10T15:21:12.171Z,99252.50
2018-09-10T15:23:40.530Z,99258.62
2018-09-10T15:26:08.868Z,99261.30
2018-09-10T15:28:37.447Z,99273.42
2018-09-10T15:31:05.898Z,99272.11
2018-09-10T15:33:34.302Z,99274.55
2018-09-10T15:36:02.673Z,99274.45
2018-09-10T15:38:31.078Z,99282.30
2018-09-10T15:40:59.629Z,99294.20
2018-09-10T15:43:27.980Z,99288.78
2018-09-10T15:45:56.327Z,99298.06
2018-09-10T15:48:24.635Z,99306.87
2018-09-10T15:50:53.134Z,99301.43
2018-09-10T15:53:21.474Z,99297.41
2018-09-10T15:55:49.874Z,99295.56
2018-09-10T15:58:18.353Z,99288.12
2018-09-10T16:00:46.744Z,99282.17
2018-09-10T16:03:15.059Z,99293.45
2018-09-10T16:05:43.436Z,99294.20
2018-09-10T16:08:11.985Z,99286.33
2018-09-10T16:10:40.554Z,99282.10
2018-09-10T16:13:08.980Z,99279.99
2018-09-10T16:15:37.593Z,99287.24
2018-09-10T16:18:06.143Z,99298.05
2018-09-10T16:20:34.518Z,99298.31
2018-09-10T16:23:02.860Z,99318.06
2018-09-10T16:25:31.598Z,99311.11
2018-09-10T16:28:00.206Z,99317.11
2018-09-10T16:30:28.824Z,99308.16
2018-09-10T16:32:57.858Z,99303.41
2018-09-10T16:35:26.580Z,99305.60
2018-09-10T16:37:55.040Z,99317.50
2018-09-10T16:40:23.376Z,99306.52
2018-09-10T16:42:51.839Z,99290.02
2018-09-10T16:45:20.215Z,99282.07
2018-09-10T16:47:48.520Z,99286.53
2018-09-10T16:50:17.466Z,99310.54
2018-09-10T16:52:45.868Z,99312.84
2018-09-10T16:55:14.158Z,99308.27
2018-09-10T16:57:42.632Z,99307.44
2018-09-10T17:00:11.123Z,99314.65
2018-09-10T17:02:39.419Z,99333.36
2018-09-10T17:05:07.823Z,99333.85
2018-09-10T17:07:36.187Z,99324.80
2018-09-10T17:10:04.635Z,99323.84
2018-09-10T17:12:33.049Z,99312.53
2018-09-10T17:15:01.460Z,99311.14
2018-09-10T17:17:29.832Z,99311.03
2018-09-10T17:19:58.164Z,99328.00
2018-09-10T17:22:26.923Z,99326.53
2018-09-10T17:24:55.346Z,99316.15
2018-09-10T17:27:23.685Z,99323.18
2018-09-10T17:29:52.282Z,99313.66
2018-09-10T17:32:20.559Z,99306.40
2018-09-10T17:34:48.889Z,99310.71
2018-09-10T17:37:17.211Z,99327.70
2018-09-10T17:39:45.629Z,99321.64
2018-09-10T17:42:13.923Z,99315.90
2018-09-10T17:44:42.394Z,99324.78
2018-09-10T17:47:10.807Z,99324.66
2018-09-10T17:49:39.035Z,99316.35
2018-09-10T17:52:07.451Z,99324.87
2018-09-10T17:56:00.185Z,99328.19
2018-09-10T17:58:28.603Z,99326.64
2018-09-10T18:00:56.960Z,99333.36
2018-09-10T18:03:25.335Z,99336.89
2018-09-10T18:05:53.744Z,99349.92
2018-09-10T18:08:22.534Z,99346.70
2018-09-10T18:10:51.087Z,99352.52
2018-09-10T18:13:19.621Z,99355.92
2018-09-10T18:15:48.331Z,99357.89
2018-09-10T18:18:16.738Z,99365.42
2018-09-10T18:20:45.179Z,99372.85
2018-09-10T18:23:13.698Z,99373.55
2018-09-10T18:25:43.051Z,99376.97
2018-09-10T18:28:11.504Z,99379.38
2018-09-10T18:30:39.906Z,99377.69
2018-09-10T18:33:08.456Z,99383.61
2018-09-10T18:35:36.792Z,99390.32
2018-09-10T18:38:05.239Z,99399.78
2018-09-10T18:40:33.680Z,99398.74
2018-09-10T18:43:02.032Z,99391.98
2018-09-10T18:45:30.450Z,99401.91
2018-09-10T18:47:58.865Z,99397.31
2018-09-10T18:50:27.228Z,99401.23
2018-09-10T18:52:55.593Z,99405.80
2018-09-10T18:55:23.982Z,99405.63
2018-09-10T18:57:52.733Z,99408.34
2018-09-10T19:00:21.154Z,99396.88
2018-09-10T19:02:49.514Z,99406.80
2018-09-10T19:05:18.050Z,99400.57
2018-09-10T19:07:46.477Z,99398.91
2018-09-10T19:10:15.051Z,99401.79
2018-09-10T19:12:43.420Z,99403.48
2018-09-10T19:15:11.922Z,99397.91
2018-09-10T19:17:40.317Z,99391.64
2018-09-10T19:20:09.106Z,99392.68
2018-09-10T19:22:37.476Z,99390.31
2018-09-10T19:25:06.049Z,99393.03
2018-09-10T19:27:34.519Z,99391.31
2018-09-10T19:30:03.052Z,99398.44
2018-09-10T19:32:31.405Z,99385.77
2018-09-10T19:34:59.942Z,99379.67
2018-09-10T19:37:28.527Z,99382.55
2018-09-10T19:39:57.018Z,99374.95
2018-09-10T19:42:26.238Z,99360.44
2018-09-10T19:44:54.950Z,99360.09
2018-09-10T19:47:23.412Z,99356.39
2018-09-10T19:49:51.826Z,99355.36
2018-09-10T19:52:20.835Z,99352.80
2018-09-10T19:54:49.215Z,99361.91
2018-09-10T19:57:18.145Z,99360.89
2018-09-10T19:59:46.650Z,99369.49
2018-09-10T20:02:15.112Z,99369.66
2018-09-10T20:04:43.454Z,99374.38
2018-09-10T20:07:11.857Z,99383.32
2018-09-10T20:09:40.335Z,99382.14
2018-09-10T20:12:09.490Z,99378.59
2018-09-10T20:14:37.899Z,99371.85
2018-09-10T20:17:06.540Z,99370.00
2018-09-10T20:19:34.967Z,99358.03
2018-09-10T20:22:03.423Z,99362.55
2018-09-10T20:24:31.720Z,99367.64
2018-09-10T20:27:00.404Z,99368.28
2018-09-10T20:29:29.915Z,99371.81
2018-09-10T20:31:58.342Z,99370.13
2018-09-10T20:34:26.692Z,99366.25
2018-09-10T20:36:55.324Z,99373.29
2018-09-10T20:39:25.161Z,99374.74
2018-09-10T20:41:53.482Z,99381.41
2018-09-10T20:44:22.564Z,99369.18
2018-09-10T20:46:50.866Z,99362.78
2018-09-10T20:49:19.294Z,99365.64
2018-09-10T20:51:47.616Z,99374.44
2018-09-10T20:54:16.048Z,99386.13
2018-09-10T20:56:44.580Z,99395.39
2018-09-10T20:59:12.977Z,99384.69
2018-09-10T21:01:41.800Z,99375.59
2018-09-10T21:04:10.153Z,99392.88
2018-09-10T21:06:38.471Z,99409.26
2018-09-10T21:09:08.669Z,99405.73
2018-09-10T21:11:36.975Z,99397.64
2018-09-10T21:14:06.596Z,99398.27
2018-09-10T21:16:34.903Z,99409.03
2018-09-10T21:19:03.286Z,99412.31
2018-09-10T21:21:31.640Z,99407.68
2018-09-10T21:23:59.967Z,99402.30
2018-09-10T21:26:28.303Z,99405.34
2018-09-10T21:28:56.621Z,99411.04
2018-09-10T21:31:25.327Z,99398.59
2018-09-10T21:33:53.909Z,99388.54
2018-09-10T21:36:22.224Z,99374.74
2018-09-10T21:38:50.558Z,99366.77
2018-09-10T21:41:18.901Z,99364.41
2018-09-10T21:43:47.280Z,99355.46
2018-09-10T21:46:15.630Z,99363.28
2018-09-10T21:48:43.990Z,99369.92
2018-09-10T21:51:12.402Z,99372.22
2018-09-10T21:53:40.835Z,99360.77
2018-09-10T21:56:09.115Z,99361.05
2018-09-10T21:58:37.634Z,99371.88
2018-09-10T22:01:05.917Z,99370.54
2018-09-10T22:03:34.350Z,99374.13
2018-09-10T22:06:02.649Z,99381.19
2018-09-10T22:08:30.974Z,99375.36
2018-09-10T22:10:59.272Z,99377.47
2018-09-10T22:13:28.390Z,99373.80
2018-09-10T22:15:56.689Z,99380.48
2018-09-10T22:18:25.030Z,99375.80
2018-09-10T22:20:53.474Z,99375.81
2018-09-10T22:23:21.999Z,99379.48
2018-09-10T22:25:50.303Z,99373.55
2018-09-10T22:28:19.163Z,99373.43
2018-09-10T22:30:47.661Z,99378.47
2018-09-10T22:33:16.022Z,99373.75
2018-09-10T22:35:44.377Z,99376.40
2018-09-10T22:38:12.735Z,99365.28
2018-09-10T22:40:41.110Z,99364.52
2018-09-10T22:43:15.987Z,99369.97
2018-09-10T22:45:44.330Z,99365.56
2018-09-10T22:48:12.716Z,99363.33
2018-09-10T22:50:41.063Z,99364.35
2018-09-10T22:53:09.480Z,99366.50
2018-09-10T22:55:38.285Z,99366.18
2018-09-10T22:58:06.588Z,99363.58
2018-09-10T23:00:35.042Z,99358.13
2018-09-10T23:03:03.366Z,99357.53
2018-09-10T23:05:31.758Z,99359.38
2018-09-10T23:08:00.082Z,99363.90
2018-09-10T23:10:28.393Z,99365.67
2018-09-10T23:12:56.687Z,99360.31
2018-09-10T23:15:25.084Z,99358.36
2018-09-10T23:17:53.472Z,99367.70
2018-09-10T23:20:21.818Z,99369.79
2018-09-10T23:22:50.148Z,99363.45
2018-09-10T23:25:18.471Z,99377.56
2018-09-10T23:27:46.891Z,99379.73
2018-09-10T23:30:15.628Z,99380.14
2018-09-10T23:32:43.971Z,99372.48
2018-09-10T23:35:12.315Z,99370.97
2018-09-10T23:37:40.690Z,99372.02
2018-09-10T23:40:09.183Z,99364.86
2018-09-10T23:42:37.512Z,99366.67
2018-09-10T23:45:05.866Z,99359.86
2018-09-10T23:47:34.225Z,99364.11
2018-09-10T23:50:02.678Z,99360.99
2018-09-10T23:52:31.047Z,99366.33
2018-09-10T23:54:59.402Z,99368.88
2018-09-10T23:57:27.839Z,99375.30
2018-09-10T23:59:56.218Z,99381.47
